Prior Lake, MN (55372)

5:52 AM CDT on July 24, 2016 (GMT -0500)
| | Change Station

Elev -9999 ft 0.00 °N, 0.00 °E | Updated

Clear
Clear
75 °F
Feels Like 75 °F
N
9
Wind Variable Wind from NW
Gusts 16 mph

Today
High -- | Low -- °F
--% Chance of Precip.
Yesterday
High -- | Low -- °F
Precip. -- in
Pressure 29.75 in
Visibility 10.0 miles
Clouds Overcast 3300 ft
Dew Point 69 °F
Humidity 83%
Rainfall --
Snow Depth Not available.
5:51 AM 8:47 PM
Waning Gibbous, 77% visible
METAR KFCM 240953Z AUTO 32006KT 10SM OVC033 24/20 A2976 RMK AO2 WSHFT 0850 SLP074 T02390200
Pressure 29.75 in
Visibility 10.0 miles
Clouds Overcast 3300 ft
Dew Point 69 °F
Humidity 83%
Rainfall --
Snow Depth Not available.
5:51 AM 8:47 PM
Waning Gibbous, 77% visible
METAR KFCM 240953Z AUTO 32006KT 10SM OVC033 24/20 A2976 RMK AO2 WSHFT 0850 SLP074 T02390200

10-Day Weather Forecast

Almanac

Astronomy

Jul. 24, 2016 Rise Set
Actual Time
Civil Twilight
Nautical Twilight
Astronomical Twilight
Moon
Length of Visible Light
Length of Day
Tomorrow will be .
, % of the Moon is Illuminated

Today's Extremes

State Highs State Lows

Community

WunderPhotos

Upload Photos

1,927,039 photos uploaded!

WunderBlog® & News

Nearby

Air Quality

  Air Quality AQ Index Pollutant
Not available.

Snow Depth

Station Depth Elevation

Earthquake Activity

City Distance Mag. Time & Date
Minimum magnitude displayed is 2.5.

Coastal Water Temperatures

Place Temperature

Stations

Nearby Weather Stations

Station Location Temp. Windchill Dew Point Humidity Wind Precip. Elev Updated Type
                   

Watches & Warnings

There are currently no watches in effect.